Time;durP1;ratioP1;P1;durP2;ratioP2;P2;SDS_P1;SDS_P2;PMS_P1;PMS_P2;Temp;Humidity;BMP_temperature;BMP_pressure;BME280_temperature;BME280_humidity;BME280_pressure;Samples;Min_cycle;Max_cycle;Signal;HPM_P1;HPM_P2
2023/01/27 00:01:05;;;;;;;8.13;5.15;;;;;;;6.59;100.00;100691.84;5074758;28;20032;-86
2023/01/27 00:03:31;;;;;;;7.40;5.18;;;;;;;6.54;100.00;100685.22;5091646;28;20028;-86
2023/01/27 00:06:00;;;;;;;9.52;5.13;;;;;;;6.88;100.00;100678.97;5092575;28;20036;-86
2023/01/27 00:08:27;;;;;;;12.93;5.25;;;;;;;6.67;100.00;100692.84;5092104;28;20111;-84
2023/01/27 00:13:25;;;;;;;8.52;5.90;;;;;;;6.31;100.00;100678.47;5090349;28;20084;-86
2023/01/27 00:13:43;;;;;;;11.18;5.53;;;;;;;6.65;100.00;100676.50;5093005;28;20028;-84
2023/01/27 00:16:09;;;;;;;9.15;5.70;;;;;;;6.48;100.00;100684.91;5094666;28;20039;-84
2023/01/27 00:18:34;;;;;;;9.95;5.35;;;;;;;6.53;100.00;100680.16;5093175;28;20032;-85
2023/01/27 00:26:28;;;;;;;6.40;4.38;;;;;;;6.61;100.00;100689.94;5089789;28;20443;-85
2023/01/27 00:28:54;;;;;;;8.65;4.95;;;;;;;6.51;100.00;100684.66;5091115;28;20024;-83
2023/01/27 00:34:10;;;;;;;12.23;5.82;;;;;;;6.70;100.00;100684.78;5095430;28;20081;-85
2023/01/27 00:36:37;;;;;;;;;;;;;;;7.08;100.00;100686.91;5095620;28;20066;-85
2023/01/27 00:39:04;;;;;;;12.55;5.95;;;;;;;6.65;100.00;100675.69;5094963;28;19927;-84
2023/01/27 00:41:32;;;;;;;14.65;6.55;;;;;;;6.84;100.00;100669.72;5095812;28;20067;-85
2023/01/27 00:43:58;;;;;;;12.30;6.18;;;;;;;6.71;100.00;100676.00;5094985;28;20504;-85
2023/01/27 00:46:24;;;;;;;14.30;7.32;;;;;;;6.58;100.00;100680.59;5094381;28;20093;-83
2023/01/27 00:48:51;;;;;;;13.27;6.95;;;;;;;6.67;100.00;100674.59;5094207;28;20474;-83
2023/01/27 00:51:17;;;;;;;12.18;7.38;;;;;;;6.52;100.00;100687.13;5096034;28;20035;-87
2023/01/27 00:53:43;;;;;;;14.75;7.72;;;;;;;6.37;100.00;100681.41;5096465;28;20032;-83
2023/01/27 00:56:09;;;;;;;14.48;7.90;;;;;;;6.65;100.00;100668.66;5093570;28;20154;-82
2023/01/27 00:58:34;;;;;;;16.10;8.73;;;;;;;6.55;100.00;100665.19;5091703;28;20036;-84
2023/01/27 01:01:03;;;;;;;21.42;7.80;;;;;;;6.81;100.00;100670.00;5094834;28;20123;-85
2023/01/27 01:03:30;;;;;;;14.77;8.65;;;;;;;6.70;100.00;100668.28;5096596;28;20028;-85
2023/01/27 01:06:02;;;;;;;14.18;7.60;;;;;;;7.00;100.00;100664.88;5094891;28;20055;-85
2023/01/27 01:08:31;;;;;;;15.65;7.60;;;;;;;6.73;100.00;100665.41;5096441;28;20042;-87
2023/01/27 01:10:58;;;;;;;11.25;6.50;;;;;;;6.43;100.00;100662.63;5095792;28;20381;-87
2023/01/27 01:13:26;;;;;;;14.18;7.32;;;;;;;6.26;100.00;100652.75;5095387;28;20039;-84
2023/01/27 01:15:52;;;;;;;11.93;6.53;;;;;;;6.72;100.00;100659.38;5095713;28;20100;-86
2023/01/27 01:18:17;;;;;;;12.25;6.90;;;;;;;6.74;100.00;100659.25;5096029;28;20474;-84
2023/01/27 01:20:45;;;;;;;17.02;7.45;;;;;;;6.57;100.00;100650.22;5096483;28;20107;-86
2023/01/27 01:23:12;;;;;;;13.68;6.57;;;;;;;6.67;100.00;100656.31;5096084;28;20051;-87
2023/01/27 01:25:37;;;;;;;15.23;7.22;;;;;;;6.35;100.00;100654.63;5094608;28;20382;-86
2023/01/27 01:28:05;;;;;;;13.70;7.07;;;;;;;6.41;100.00;100648.88;5078172;28;20020;-85
2023/01/27 01:30:32;;;;;;;14.90;7.28;;;;;;;6.56;100.00;100652.00;5094423;28;20039;-87
2023/01/27 01:32:58;;;;;;;12.05;6.50;;;;;;;6.51;100.00;100637.72;5094680;28;20028;-85
2023/01/27 01:35:27;;;;;;;13.98;6.55;;;;;;;6.69;100.00;100656.19;5094984;28;20469;-85
2023/01/27 01:37:53;;;;;;;11.25;6.90;;;;;;;6.72;100.00;100654.16;5095919;28;20517;-85
2023/01/27 01:40:20;;;;;;;14.90;7.22;;;;;;;6.54;100.00;100659.13;5092816;28;20038;-87
2023/01/27 01:42:54;;;;;;;13.13;6.25;;;;;;;6.64;100.00;100653.97;5094602;28;20363;-85
2023/01/27 01:45:32;;;;;;;15.32;7.40;;;;;;;6.47;100.00;100662.38;5095838;28;20474;-87
2023/01/27 01:48:15;;;;;;;13.50;5.80;;;;;;;6.44;100.00;100645.22;5095268;28;20039;-86
2023/01/27 01:50:47;;;;;;;13.60;5.55;;;;;;;6.81;100.00;100655.16;5095344;28;20039;-84
2023/01/27 01:53:13;;;;;;;14.05;6.70;;;;;;;6.43;100.00;100646.97;5095700;28;20427;-83
2023/01/27 01:55:39;;;;;;;14.85;6.00;;;;;;;6.64;100.00;100643.53;5095442;28;20032;-83
2023/01/27 01:58:08;;;;;;;12.48;6.10;;;;;;;6.52;100.00;100652.41;5093718;28;20024;-82
2023/01/27 02:00:34;;;;;;;13.60;5.82;;;;;;;6.77;100.00;100652.94;5094842;28;20028;-84
2023/01/27 02:03:01;;;;;;;15.80;5.80;;;;;;;6.32;100.00;100646.22;5093704;28;20020;-86
2023/01/27 02:05:39;;;;;;;16.67;6.72;;;;;;;6.65;100.00;100654.81;5093270;28;20035;-87
2023/01/27 02:08:24;;;;;;;12.43;6.63;;;;;;;6.65;100.00;100660.03;5094081;28;20032;-87
2023/01/27 02:10:51;;;;;;;17.58;8.30;;;;;;;6.52;100.00;100657.63;5092560;28;20027;-86
2023/01/27 02:13:16;;;;;;;17.08;8.30;;;;;;;6.34;100.00;100657.34;5094689;28;20024;-86
2023/01/27 02:15:42;;;;;;;22.20;9.32;;;;;;;6.16;100.00;100652.69;5092905;28;20042;-85
2023/01/27 02:18:08;;;;;;;20.02;10.07;;;;;;;6.32;100.00;100649.66;5093222;28;20476;-85
2023/01/27 02:20:43;;;;;;;17.90;9.05;;;;;;;6.14;100.00;100646.78;5094121;28;20032;-85
2023/01/27 02:23:28;;;;;;;20.35;9.50;;;;;;;6.53;100.00;100654.88;5092459;28;20035;-85
2023/01/27 02:26:18;;;;;;;41.70;11.95;;;;;;;6.55;100.00;100657.34;5094660;28;20036;-86
2023/01/27 02:28:44;;;;;;;17.00;8.13;;;;;;;6.38;100.00;100654.38;5092428;28;20038;-85
2023/01/27 02:31:09;;;;;;;17.80;9.35;;;;;;;6.68;100.00;100659.75;5093373;28;20470;-84
2023/01/27 02:33:35;;;;;;;26.27;9.52;;;;;;;6.63;100.00;100660.13;5094986;28;20032;-85
2023/01/27 02:36:15;;;;;;;22.42;10.23;;;;;;;6.72;100.00;100645.50;5093467;28;20040;-87
2023/01/27 02:38:51;;;;;;;20.70;9.45;;;;;;;6.41;100.00;100654.09;5092942;28;20040;-85
2023/01/27 02:41:41;;;;;;;19.73;8.80;;;;;;;6.57;100.00;100653.66;5094665;28;20123;-87
2023/01/27 02:44:08;;;;;;;18.65;8.52;;;;;;;6.61;100.00;100642.97;5094866;28;20028;-85
2023/01/27 02:46:35;;;;;;;20.25;9.48;;;;;;;6.47;100.00;100651.94;5094216;28;20431;-86
2023/01/27 02:49:01;;;;;;;17.98;9.02;;;;;;;6.71;100.00;100647.28;5094732;28;20386;-86
2023/01/27 02:51:28;;;;;;;17.30;10.15;;;;;;;6.43;100.00;100652.19;5094282;28;20024;-86
2023/01/27 02:53:53;;;;;;;24.00;10.25;;;;;;;6.69;100.00;100640.53;5094825;28;20363;-86
2023/01/27 02:56:19;;;;;;;17.73;9.45;;;;;;;6.32;100.00;100636.63;5095235;28;20060;-85
2023/01/27 02:58:45;;;;;;;21.95;9.23;;;;;;;6.51;100.00;100632.50;5094258;28;20127;-86
2023/01/27 03:01:10;;;;;;;23.65;10.73;;;;;;;6.54;100.00;100627.81;5094217;28;20036;-85
2023/01/27 03:03:42;;;;;;;17.30;9.25;;;;;;;6.64;100.00;100632.28;5092160;28;20059;-85
2023/01/27 03:06:14;;;;;;;23.73;10.20;;;;;;;6.56;100.00;100631.13;5093896;28;20032;-86
2023/01/27 03:08:40;;;;;;;21.83;9.90;;;;;;;6.64;100.00;100633.09;5093831;28;20024;-86
2023/01/27 03:11:06;;;;;;;22.35;10.07;;;;;;;6.51;100.00;100622.06;5094949;28;20027;-85
2023/01/27 03:13:33;;;;;;;22.48;10.48;;;;;;;6.38;100.00;100628.28;5091051;28;20027;-85
2023/01/27 03:18:48;;;;;;;21.17;9.70;;;;;;;6.61;100.00;100617.69;5093834;28;20076;-89
2023/01/27 03:21:15;;;;;;;24.38;9.27;;;;;;;6.73;100.00;100626.28;5092186;28;20482;-85
2023/01/27 03:23:41;;;;;;;27.75;10.35;;;;;;;6.70;100.00;100631.75;5093198;28;20082;-85
2023/01/27 03:26:08;;;;;;;25.58;10.10;;;;;;;6.77;100.00;100637.28;5093598;28;20461;-86
2023/01/27 03:28:35;;;;;;;18.85;8.82;;;;;;;6.75;100.00;100639.19;5094970;28;20028;-85
2023/01/27 03:31:06;;;;;;;23.92;10.57;;;;;;;6.38;100.00;100614.41;5076185;28;20167;-87
2023/01/27 03:33:32;;;;;;;22.75;10.85;;;;;;;6.47;100.00;100625.84;5093721;28;20106;-86
2023/01/27 03:47:01;;;;;;;25.77;13.00;;;;;;;6.84;100.00;100627.97;5092803;28;20379;-85
2023/01/27 03:49:27;;;;;;;25.85;12.73;;;;;;;6.66;100.00;100644.22;5089183;28;20035;-85
2023/01/27 03:51:53;;;;;;;24.92;10.82;;;;;;;6.47;100.00;100642.34;5092052;28;20039;-84
2023/01/27 03:54:18;;;;;;;26.75;12.40;;;;;;;6.37;100.00;100636.22;5093127;28;20024;-83
2023/01/27 03:56:46;;;;;;;22.42;9.40;;;;;;;6.77;100.00;100642.50;5093102;28;20407;-86
2023/01/27 03:59:13;;;;;;;25.98;11.02;;;;;;;6.51;100.00;100642.94;5091515;28;20048;-83
2023/01/27 04:01:39;;;;;;;20.25;9.38;;;;;;;6.81;100.00;100630.84;5091757;28;20032;-85
2023/01/27 04:06:59;;;;;;;27.48;9.18;;;;;;;6.91;100.00;100634.34;5095127;28;20053;-85
2023/01/27 04:09:32;;;;;;;20.48;9.40;;;;;;;6.47;100.00;100634.53;5093749;28;20032;-85
2023/01/27 04:12:03;;;;;;;19.90;8.80;;;;;;;6.45;100.00;100643.41;5096429;28;20024;-84
2023/01/27 04:14:31;;;;;;;20.98;9.75;;;;;;;6.79;100.00;100635.38;5097756;28;20064;-85
2023/01/27 04:17:02;;;;;;;22.90;10.75;;;;;;;6.58;100.00;100638.84;5098374;28;20115;-86
2023/01/27 04:19:29;;;;;;;22.52;10.43;;;;;;;6.69;100.00;100641.38;5080262;28;20123;-87
2023/01/27 04:21:56;;;;;;;22.85;10.82;;;;;;;6.82;100.00;100628.13;5097609;28;20039;-86
2023/01/27 04:24:22;;;;;;;29.38;11.90;;;;;;;6.59;100.00;100635.28;5095560;28;20055;-86
2023/01/27 04:26:58;;;;;;;21.98;11.35;;;;;;;6.43;100.00;100620.91;5096084;28;20034;-86
2023/01/27 04:29:28;;;;;;;22.40;10.65;;;;;;;6.61;100.00;100630.75;5093999;28;20138;-85
2023/01/27 04:31:54;;;;;;;26.27;10.52;;;;;;;6.61;100.00;100633.34;5097213;28;20031;-86
2023/01/27 04:34:20;;;;;;;29.63;10.43;;;;;;;6.39;100.00;100632.53;5098915;28;20038;-85
2023/01/27 04:36:47;;;;;;;27.35;10.93;;;;;;;6.33;100.00;100632.22;5096210;28;20024;-83
2023/01/27 04:39:13;;;;;;;24.52;12.10;;;;;;;6.78;100.00;100633.72;5095518;28;20024;-82
2023/01/27 04:41:39;;;;;;;30.70;13.40;;;;;;;6.62;100.00;100627.19;5094960;28;20362;-84
2023/01/27 04:44:05;;;;;;;21.63;10.85;;;;;;;6.66;100.00;100628.56;5096474;28;20093;-83
2023/01/27 04:46:32;;;;;;;23.40;10.07;;;;;;;6.57;100.00;100627.56;5077399;28;20051;-85
2023/01/27 04:48:58;;;;;;;22.52;10.45;;;;;;;6.76;100.00;100609.53;5095476;28;20478;-85
2023/01/27 04:51:23;;;;;;;25.27;10.02;;;;;;;6.13;100.00;100617.28;5096389;28;20020;-84
2023/01/27 04:53:49;;;;;;;25.67;10.20;;;;;;;6.40;100.00;100631.59;5096130;28;20039;-84
2023/01/27 04:56:56;;;;;;;20.85;9.82;;;;;;;6.33;100.00;100622.63;5096000;28;20027;-83
2023/01/27 04:59:21;;;;;;;149.50;18.98;;;;;;;6.37;100.00;100629.25;5082879;28;20044;-84
2023/01/27 05:01:47;;;;;;;21.58;10.20;;;;;;;6.57;100.00;100613.69;5095825;28;20027;-83
2023/01/27 05:04:13;;;;;;;19.00;8.65;;;;;;;6.33;100.00;100620.03;5094814;28;20571;-84
2023/01/27 05:06:38;;;;;;;19.67;9.43;;;;;;;6.58;100.00;100628.41;5095979;28;20031;-84
2023/01/27 05:09:04;;;;;;;25.00;10.68;;;;;;;6.62;100.00;100621.16;5095745;28;20020;-84
2023/01/27 05:11:29;;;;;;;23.70;10.18;;;;;;;6.66;100.00;100625.97;5094486;28;20031;-84
2023/01/27 05:13:55;;;;;;;22.48;9.98;;;;;;;6.84;100.00;100620.13;5095578;28;20027;-84
2023/01/27 05:16:24;;;;;;;30.90;10.80;;;;;;;6.49;100.00;100623.97;5092667;28;20050;-85
2023/01/27 05:18:51;;;;;;;23.00;10.02;;;;;;;6.48;100.00;100617.06;5094739;28;20049;-85
2023/01/27 05:21:20;;;;;;;28.70;10.93;;;;;;;6.85;100.00;100609.56;5096013;28;20047;-84
2023/01/27 05:23:46;;;;;;;26.60;10.52;;;;;;;6.92;100.00;100604.66;5076832;28;20029;-86
2023/01/27 05:26:17;;;;;;;25.80;11.25;;;;;;;6.74;100.00;100614.06;5095627;28;20020;-85
2023/01/27 05:28:44;;;;;;;29.08;9.30;;;;;;;6.57;100.00;100621.53;5094470;28;20058;-84
2023/01/27 05:31:20;;;;;;;26.70;9.25;;;;;;;6.87;100.00;100619.88;5095589;28;20028;-83
2023/01/27 05:33:47;;;;;;;24.15;10.25;;;;;;;6.88;100.00;100632.00;5096136;28;21684;-84
2023/01/27 05:36:15;;;;;;;21.70;10.15;;;;;;;6.82;100.00;100624.66;5095101;28;20024;-84
2023/01/27 05:38:41;;;;;;;24.52;10.80;;;;;;;6.95;100.00;100617.44;5095211;28;20028;-86
2023/01/27 05:41:10;;;;;;;26.25;10.88;;;;;;;6.92;100.00;100629.94;5094390;28;20107;-86
2023/01/27 05:43:38;;;;;;;31.60;11.63;;;;;;;6.92;100.00;100622.94;5094603;28;20024;-85
2023/01/27 05:46:12;;;;;;;22.75;8.40;;;;;;;6.83;100.00;100621.09;5094700;28;20131;-87
2023/01/27 05:48:43;;;;;;;23.83;9.27;;;;;;;7.27;100.00;100621.69;5076350;28;20055;-83
2023/01/27 05:51:09;;;;;;;28.67;10.35;;;;;;;7.35;100.00;100628.81;5093855;28;20043;-83
2023/01/27 05:53:35;;;;;;;28.40;10.65;;;;;;;6.72;100.00;100622.00;5092931;28;20023;-82
2023/01/27 05:56:01;;;;;;;30.15;9.98;;;;;;;6.62;100.00;100628.97;5092915;28;20035;-83
2023/01/27 05:58:27;;;;;;;24.65;10.95;;;;;;;7.05;100.00;100629.69;5093920;28;20071;-83
2023/01/27 06:00:53;;;;;;;22.95;9.25;;;;;;;6.88;100.00;100626.78;5092825;28;20047;-85
2023/01/27 06:03:20;;;;;;;20.88;8.57;;;;;;;7.02;100.00;100635.19;5092758;28;20445;-84
2023/01/27 06:05:54;;;;;;;18.83;6.85;;;;;;;6.78;100.00;100623.28;5093983;28;20032;-84
2023/01/27 06:08:25;;;;;;;18.75;8.60;;;;;;;7.23;100.00;100633.34;5092372;28;20020;-82
2023/01/27 06:10:52;;;;;;;19.77;7.85;;;;;;;7.16;100.00;100642.66;5094705;28;20036;-83
2023/01/27 06:13:19;;;;;;;22.05;8.80;;;;;;;7.08;100.00;100630.28;5093247;28;20454;-84
2023/01/27 06:15:46;;;;;;;19.17;7.47;;;;;;;6.95;100.00;100633.13;5094558;28;20047;-83
2023/01/27 06:18:13;;;;;;;19.63;8.50;;;;;;;7.27;100.00;100639.97;5094448;28;20483;-83
2023/01/27 06:20:40;;;;;;;18.98;8.93;;;;;;;7.17;100.00;100644.31;5093244;28;20375;-84
2023/01/27 06:23:07;;;;;;;21.35;8.68;;;;;;;7.20;100.00;100640.63;5094327;28;20024;-84
2023/01/27 06:25:42;;;;;;;17.35;6.60;;;;;;;6.85;100.00;100645.28;5094295;28;20485;-83
2023/01/27 06:28:09;;;;;;;22.67;8.07;;;;;;;7.06;100.00;100628.75;5090842;28;20043;-84
2023/01/27 06:30:36;;;;;;;21.65;8.10;;;;;;;7.20;100.00;100638.00;5089772;28;20381;-83
2023/01/27 06:33:03;;;;;;;22.30;8.63;;;;;;;7.17;100.00;100639.09;5094014;28;20415;-84
2023/01/27 06:35:30;;;;;;;16.20;7.97;;;;;;;7.21;100.00;100635.25;5094415;28;20028;-84
2023/01/27 06:37:58;;;;;;;23.38;8.18;;;;;;;7.09;100.00;100637.13;5092684;28;20092;-85
2023/01/27 06:40:28;;;;;;;17.52;8.00;;;;;;;6.96;100.00;100623.47;5094285;28;20031;-88
2023/01/27 06:42:54;;;;;;;26.92;9.02;;;;;;;6.53;100.00;100630.56;5092834;28;20085;-86
2023/01/27 06:45:20;;;;;;;25.30;9.05;;;;;;;6.98;100.00;100630.22;5086802;28;20040;-85
2023/01/27 06:47:54;;;;;;;19.88;8.85;;;;;;;7.04;100.00;100638.50;5093501;28;20385;-83
2023/01/27 06:50:20;;;;;;;29.02;9.77;;;;;;;6.96;100.00;100644.38;5090679;28;20477;-85
2023/01/27 06:52:46;;;;;;;19.35;8.15;;;;;;;6.47;100.00;100646.72;5092080;28;20020;-85
2023/01/27 06:55:11;;;;;;;17.23;7.75;;;;;;;6.30;100.00;100630.72;5092915;28;20027;-86
2023/01/27 06:57:38;;;;;;;22.88;7.53;;;;;;;6.50;100.00;100646.50;5091986;28;20112;-85
2023/01/27 07:00:04;;;;;;;19.48;7.03;;;;;;;6.08;100.00;100648.09;5071646;28;20040;-84
2023/01/27 07:02:29;;;;;;;60.50;14.13;;;;;;;6.45;100.00;100654.69;5090309;28;20031;-81
2023/01/27 07:04:55;;;;;;;26.67;7.55;;;;;;;6.43;100.00;100659.22;5092000;28;20024;-81
2023/01/27 07:07:21;;;;;;;26.20;8.45;;;;;;;6.81;100.00;100649.13;5091863;28;20031;-84
2023/01/27 07:09:47;;;;;;;21.42;8.20;;;;;;;6.54;100.00;100647.88;5089237;28;20396;-79
2023/01/27 07:12:12;;;;;;;104.10;21.80;;;;;;;7.12;100.00;100644.72;5090953;28;20028;-81
2023/01/27 07:14:38;;;;;;;21.08;8.60;;;;;;;7.16;100.00;100634.84;5088149;28;20028;-79
2023/01/27 07:17:04;;;;;;;19.27;6.28;;;;;;;6.95;100.00;100640.09;5087358;28;20020;-79
2023/01/27 07:19:30;;;;;;;22.48;7.45;;;;;;;6.90;100.00;100643.13;5088896;28;20043;-81
2023/01/27 07:21:55;;;;;;;24.38;8.02;;;;;;;6.92;100.00;100651.66;5089701;28;20020;-82
2023/01/27 07:24:21;;;;;;;19.00;7.35;;;;;;;7.20;100.00;100638.81;5089219;28;20036;-80
2023/01/27 07:26:46;;;;;;;18.35;6.80;;;;;;;7.20;100.00;100644.06;5090743;28;20465;-81
2023/01/27 07:29:13;;;;;;;19.90;8.10;;;;;;;7.11;100.00;100644.84;5090635;28;20028;-82
2023/01/27 07:31:38;;;;;;;18.33;6.47;;;;;;;6.99;100.00;100631.88;5088557;28;20054;-82
2023/01/27 07:34:05;;;;;;;18.85;6.93;;;;;;;7.12;100.00;100649.13;5090439;28;20036;-82
2023/01/27 07:36:31;;;;;;;21.13;7.55;;;;;;;7.13;100.00;100648.97;5088586;28;20039;-82
2023/01/27 07:38:56;;;;;;;18.58;6.80;;;;;;;6.97;100.00;100644.25;5090398;28;20020;-82
2023/01/27 07:41:24;;;;;;;16.70;6.60;;;;;;;7.00;100.00;100653.63;5090872;28;20036;-81
2023/01/27 07:43:50;;;;;;;20.15;7.43;;;;;;;6.83;100.00;100663.69;5094894;28;20030;-80
2023/01/27 07:46:16;;;;;;;15.90;6.07;;;;;;;7.03;100.00;100658.56;5093723;28;20114;-83
2023/01/27 07:48:41;;;;;;;19.98;6.75;;;;;;;6.99;100.00;100660.59;5093135;28;20040;-82
2023/01/27 07:51:12;;;;;;;14.10;6.82;;;;;;;6.93;100.00;100645.47;5094646;28;20489;-83
2023/01/27 07:53:38;;;;;;;17.08;6.82;;;;;;;6.98;100.00;100665.97;5094699;28;20036;-87
2023/01/27 07:56:04;;;;;;;25.60;6.40;;;;;;;6.82;100.00;100675.09;5097938;28;20481;-87
2023/01/27 07:58:30;;;;;;;10.68;4.72;;;;;;;6.91;100.00;100663.06;5099808;28;20039;-86
2023/01/27 08:00:56;;;;;;;11.50;4.63;;;;;;;7.17;100.00;100673.03;5100905;28;20380;-87
2023/01/27 08:03:26;;;;;;;14.93;5.32;;;;;;;7.00;100.00;100685.75;5099358;28;20039;-86
2023/01/27 08:05:51;;;;;;;16.63;5.65;;;;;;;7.15;100.00;100667.13;5098755;28;20036;-85
2023/01/27 08:08:17;;;;;;;11.48;5.57;;;;;;;7.07;100.00;100670.41;5099080;28;20481;-88
2023/01/27 08:10:47;;;;;;;13.98;5.82;;;;;;;7.20;100.00;100672.78;5098227;28;20378;-89
2023/01/27 08:13:14;;;;;;;15.60;5.95;;;;;;;7.10;100.00;100669.31;5093145;28;20032;-87
2023/01/27 08:15:40;;;;;;;15.48;5.80;;;;;;;7.14;100.00;100681.16;5096786;28;20482;-85
2023/01/27 08:18:06;;;;;;;14.15;6.75;;;;;;;6.75;100.00;100687.00;5093495;28;20036;-83
2023/01/27 08:20:31;;;;;;;19.75;7.30;;;;;;;6.96;100.00;100689.59;5095765;28;20482;-85
2023/01/27 08:22:57;;;;;;;19.27;6.65;;;;;;;6.95;100.00;100700.16;5095834;28;20074;-84
2023/01/27 08:25:26;;;;;;;22.05;7.30;;;;;;;6.83;100.00;100688.97;5096287;28;20098;-90
2023/01/27 08:27:54;;;;;;;18.73;7.05;;;;;;;6.67;100.00;100674.59;5098679;28;20052;-85
2023/01/27 08:30:20;;;;;;;17.20;5.93;;;;;;;7.13;100.00;100689.94;5096442;28;20027;-82
2023/01/27 08:32:46;;;;;;;14.15;6.43;;;;;;;7.20;100.00;100695.47;5096597;28;20028;-83
2023/01/27 08:35:12;;;;;;;14.20;6.00;;;;;;;7.13;100.00;100701.19;5095635;28;20110;-89
2023/01/27 08:37:38;;;;;;;12.02;5.40;;;;;;;6.99;100.00;100715.44;5080929;28;20032;-89
2023/01/27 08:40:04;;;;;;;15.68;6.35;;;;;;;7.27;100.00;100702.66;5098849;28;20038;-89
2023/01/27 08:42:30;;;;;;;16.17;7.53;;;;;;;7.03;100.00;100700.34;5083356;28;20482;-91
2023/01/27 08:44:56;;;;;;;21.55;8.50;;;;;;;7.40;100.00;100704.19;5099893;28;20092;-88
2023/01/27 08:47:22;;;;;;;19.30;7.20;;;;;;;7.41;100.00;100718.91;5100554;28;20042;-89
2023/01/27 08:49:48;;;;;;;17.70;6.85;;;;;;;7.45;100.00;100709.84;5100052;28;20486;-89
2023/01/27 08:52:13;;;;;;;13.75;6.60;;;;;;;7.72;100.00;100711.84;5099676;28;20020;-88
2023/01/27 08:54:39;;;;;;;20.35;6.53;;;;;;;7.75;100.00;100708.13;5100646;28;20402;-88
2023/01/27 08:57:05;;;;;;;17.08;6.25;;;;;;;7.75;100.00;100718.59;5099712;28;20039;-88
2023/01/27 08:59:30;;;;;;;27.38;9.30;;;;;;;7.71;100.00;100730.28;5095752;28;20052;-87
2023/01/27 09:01:56;;;;;;;15.95;7.43;;;;;;;7.80;100.00;100723.44;5094780;28;20032;-88
2023/01/27 09:04:22;;;;;;;21.38;6.32;;;;;;;7.67;100.00;100721.06;5097042;28;20035;-85
2023/01/27 09:06:49;;;;;;;18.70;7.05;;;;;;;7.90;100.00;100728.69;5098367;28;20401;-85
2023/01/27 09:09:15;;;;;;;16.85;5.90;;;;;;;7.71;100.00;100722.44;5096272;28;20123;-87
2023/01/27 09:11:43;;;;;;;15.95;6.30;;;;;;;7.61;100.00;100726.81;5097209;28;20032;-87
2023/01/27 09:14:10;;;;;;;17.65;7.47;;;;;;;7.70;100.00;100723.41;5096340;28;20123;-84
2023/01/27 09:16:35;;;;;;;29.00;12.40;;;;;;;7.65;100.00;100736.03;5096795;28;20032;-85
2023/01/27 09:19:03;;;;;;;26.05;13.00;;;;;;;7.95;100.00;100731.69;5097448;28;20028;-86
2023/01/27 09:21:29;;;;;;;21.38;9.20;;;;;;;7.48;100.00;100733.13;5096971;28;20043;-85
2023/01/27 09:23:54;;;;;;;21.70;7.35;;;;;;;7.34;100.00;100739.50;5096822;28;20024;-88
2023/01/27 09:26:20;;;;;;;15.18;6.95;;;;;;;7.45;100.00;100733.34;5075415;28;20036;-86
2023/01/27 09:28:45;;;;;;;15.60;7.32;;;;;;;7.76;100.00;100738.53;5094631;28;20432;-85
2023/01/27 09:31:11;;;;;;;16.50;7.80;;;;;;;7.71;100.00;100719.84;5095006;28;20378;-88
2023/01/27 09:33:38;;;;;;;18.65;8.70;;;;;;;7.66;100.00;100727.22;5078865;28;20038;-87
2023/01/27 09:36:10;;;;;;;18.02;8.70;;;;;;;7.77;100.00;100732.34;5095429;28;20024;-86
2023/01/27 09:38:54;;;;;;;18.05;7.93;;;;;;;8.14;100.00;100736.97;5095365;28;20085;-87
2023/01/27 09:41:49;;;;;;;17.20;8.73;;;;;;;7.56;100.00;100738.50;5095191;28;20440;-86
2023/01/27 09:45:05;;;;;;;19.90;8.18;;;;;;;8.14;100.00;100734.34;5093475;28;20039;-87
2023/01/27 09:47:39;;;;;;;18.80;8.57;;;;;;;7.97;100.00;100735.84;5068325;28;20036;-87
2023/01/27 09:50:16;;;;;;;17.67;8.20;;;;;;;8.02;100.00;100732.81;5095637;28;20028;-86
2023/01/27 09:52:56;;;;;;;17.10;8.25;;;;;;;7.97;100.00;100735.00;5096899;28;20032;-86
2023/01/27 09:55:24;;;;;;;14.07;7.25;;;;;;;8.20;100.00;100739.97;5096864;28;20024;-87
2023/01/27 09:58:06;;;;;;;19.25;8.48;;;;;;;8.01;100.00;100733.78;5095441;28;20123;-87
2023/01/27 10:00:41;;;;;;;18.40;8.20;;;;;;;7.96;100.00;100733.34;5095315;28;20051;-86
2023/01/27 10:03:31;;;;;;;17.60;8.05;;;;;;;7.75;100.00;100729.06;5094642;28;20038;-86
2023/01/27 10:05:59;;;;;;;12.50;6.65;;;;;;;8.26;100.00;100734.22;5074841;28;20104;-87
2023/01/27 10:08:40;;;;;;;16.77;6.70;;;;;;;8.05;100.00;100737.75;5090048;28;20089;-87
2023/01/27 10:11:14;;;;;;;20.52;7.35;;;;;;;7.57;100.00;100739.34;5094858;28;20035;-84
2023/01/27 10:14:17;;;;;;;10.45;5.15;;;;;;;8.04;100.00;100741.34;5077902;28;20059;-85
2023/01/27 10:17:02;;;;;;;15.68;5.03;;;;;;;7.78;100.00;100736.63;5092266;28;20020;-81
2023/01/27 10:19:58;;;;;;;11.50;4.10;;;;;;;7.79;100.00;100727.81;5071942;28;20040;-87
2023/01/27 10:22:29;;;;;;;17.30;4.55;;;;;;;8.00;100.00;100738.19;5094462;28;20052;-83
2023/01/27 10:25:23;;;;;;;10.07;3.40;;;;;;;8.29;100.00;100736.56;5074021;28;20028;-83
2023/01/27 10:27:54;;;;;;;9.65;3.83;;;;;;;8.49;100.00;100736.56;5090528;28;20035;-83
2023/01/27 10:30:31;;;;;;;10.25;3.40;;;;;;;8.77;100.00;100734.06;5072820;28;20035;-84
2023/01/27 10:33:14;;;;;;;6.95;2.65;;;;;;;8.88;100.00;100740.94;5090756;28;20123;-83
2023/01/27 10:35:57;;;;;;;11.80;2.83;;;;;;;8.74;100.00;100731.72;5090665;28;20028;-84
2023/01/27 10:38:29;;;;;;;8.25;3.80;;;;;;;7.69;100.00;100732.22;5072120;28;20028;-84
2023/01/27 10:41:02;;;;;;;11.57;4.50;;;;;;;8.17;100.00;100740.25;5089016;28;20051;-84
2023/01/27 10:43:37;;;;;;;14.27;5.03;;;;;;;7.90;100.00;100729.50;5090319;28;20050;-83
2023/01/27 10:46:28;;;;;;;15.07;4.95;;;;;;;8.06;100.00;100739.44;5089924;28;20036;-83
2023/01/27 10:48:58;;;;;;;12.90;4.15;;;;;;;7.85;100.00;100731.69;5090666;28;20035;-83
2023/01/27 10:51:51;;;;;;;14.77;3.83;;;;;;;7.80;100.00;100733.88;5092731;28;20127;-86
2023/01/27 10:54:46;;;;;;;6.63;3.20;;;;;;;7.73;100.00;100725.75;5094876;28;20044;-86
2023/01/27 10:57:31;;;;;;;10.63;4.57;;;;;;;7.76;100.00;100722.03;5098114;28;20397;-88
2023/01/27 11:00:31;;;;;;;14.02;5.25;;;;;;;7.84;100.00;100730.03;5096686;28;20040;-86
2023/01/27 11:03:08;;;;;;;13.57;5.00;;;;;;;7.61;100.00;100732.03;5095843;28;20119;-87
2023/01/27 11:05:49;;;;;;;11.13;5.30;;;;;;;7.67;100.00;100723.69;5096502;28;20038;-85
2023/01/27 11:08:18;;;;;;;11.40;4.97;;;;;;;7.71;100.00;100717.22;5095779;28;20107;-85
2023/01/27 11:13:45;;;;;;;12.02;5.65;;;;;;;8.43;100.00;100717.00;5091235;28;20089;-84
2023/01/27 11:16:15;;;;;;;11.50;5.22;;;;;;;8.25;100.00;100722.06;5092125;28;20053;-87
2023/01/27 11:18:44;;;;;;;12.73;5.68;;;;;;;9.04;100.00;100711.53;5091427;28;20085;-85
2023/01/27 11:21:19;;;;;;;8.95;3.00;;;;;;;9.19;100.00;100725.00;5091099;28;20384;-80
2023/01/27 11:23:52;;;;;;;9.27;3.00;;;;;;;9.07;100.00;100724.34;5088866;28;20111;-80
2023/01/27 11:26:39;;;;;;;8.35;2.40;;;;;;;8.60;100.00;100725.97;5072650;28;20107;-78
2023/01/27 11:29:13;;;;;;;6.13;3.05;;;;;;;8.44;100.00;100721.25;5071474;28;20032;-79
2023/01/27 11:31:52;;;;;;;6.90;2.47;;;;;;;9.02;100.00;100710.84;5090389;28;20135;-79
2023/01/27 11:34:24;;;;;;;6.03;2.25;;;;;;;9.04;100.00;100709.75;5090473;28;20036;-79
2023/01/27 11:36:50;;;;;;;5.10;2.00;;;;;;;9.16;100.00;100705.16;5085051;28;20043;-79
2023/01/27 11:39:17;;;;;;;8.88;2.90;;;;;;;9.49;100.00;100689.81;5088563;28;20039;-79
2023/01/27 11:41:50;;;;;;;11.05;3.08;;;;;;;10.18;100.00;100684.13;5087895;28;20028;-80
2023/01/27 11:44:23;;;;;;;10.68;2.97;;;;;;;10.24;100.00;100687.94;5090608;28;20032;-87
2023/01/27 11:46:50;;;;;;;8.23;2.50;;;;;;;9.77;100.00;100684.53;5087944;28;20070;-87
2023/01/27 11:49:21;;;;;;;5.65;2.22;;;;;;;10.18;100.00;100672.78;5092586;28;20157;-86
2023/01/27 11:51:48;;;;;;;6.00;2.05;;;;;;;9.73;100.00;100672.72;5095378;28;20024;-89
2023/01/27 11:54:22;;;;;;;8.38;2.78;;;;;;;9.41;100.00;100671.38;5096861;28;20103;-88
2023/01/27 11:56:49;;;;;;;4.05;2.22;;;;;;;9.42;100.00;100675.63;5094200;28;20020;-80